createdAt,value
2022-10-26T00:00:18.347Z,17.90
2022-10-26T00:03:10.009Z,16.00
2022-10-26T00:05:41.944Z,15.30
2022-10-26T00:08:15.610Z,17.10
2022-10-26T00:10:47.646Z,15.90
2022-10-26T00:13:19.356Z,16.30
2022-10-26T00:15:51.110Z,16.20
2022-10-26T00:18:23.312Z,16.90
2022-10-26T00:20:55.329Z,15.90
2022-10-26T00:23:27.093Z,15.90
2022-10-26T00:25:59.560Z,14.60
2022-10-26T00:28:32.016Z,15.50
2022-10-26T00:31:09.188Z,16.10
2022-10-26T00:33:40.968Z,15.80
2022-10-26T00:36:16.742Z,10.80
2022-10-26T00:38:54.366Z,14.30
2022-10-26T00:41:28.113Z,15.00
2022-10-26T00:44:00.237Z,14.50
2022-10-26T00:46:36.651Z,14.00
2022-10-26T00:49:15.609Z,13.90
2022-10-26T00:51:51.703Z,14.60
2022-10-26T00:54:23.598Z,13.80
2022-10-26T00:56:56.438Z,14.60
2022-10-26T00:59:28.523Z,14.70
2022-10-26T01:02:00.462Z,14.90
2022-10-26T01:04:32.278Z,14.80
2022-10-26T01:07:05.575Z,14.70
2022-10-26T01:09:38.247Z,13.80
2022-10-26T01:12:09.943Z,15.50
2022-10-26T01:14:41.965Z,13.10
2022-10-26T01:17:26.602Z,14.60
2022-10-26T01:20:32.164Z,15.30
2022-10-26T01:23:08.307Z,14.40
2022-10-26T01:26:09.191Z,14.70
2022-10-26T01:29:00.666Z,15.10
2022-10-26T01:31:40.681Z,14.20
2022-10-26T01:34:20.118Z,14.20
2022-10-26T01:36:57.563Z,15.30
2022-10-26T01:39:38.494Z,15.50
2022-10-26T01:42:13.680Z,16.50
2022-10-26T01:44:50.603Z,17.60
2022-10-26T01:47:24.991Z,18.70
2022-10-26T01:49:59.137Z,19.70
2022-10-26T01:52:31.377Z,18.60
2022-10-26T01:55:08.747Z,20.20
2022-10-26T01:57:41.147Z,19.70
2022-10-26T02:00:15.430Z,18.90
2022-10-26T02:03:12.425Z,20.00
2022-10-26T02:06:05.167Z,19.60
2022-10-26T02:08:54.118Z,18.70
2022-10-26T02:11:38.472Z,19.70
2022-10-26T02:14:19.673Z,19.70
2022-10-26T02:17:00.584Z,18.90
2022-10-26T02:19:39.827Z,18.00
2022-10-26T02:22:20.150Z,20.20
2022-10-26T02:24:53.739Z,18.50
2022-10-26T02:27:28.565Z,19.00
2022-10-26T02:30:03.866Z,20.30
2022-10-26T02:32:38.689Z,18.70
2022-10-26T02:35:13.651Z,19.00
2022-10-26T02:37:48.589Z,20.30
2022-10-26T02:40:26.261Z,19.20
2022-10-26T02:43:01.503Z,18.60
2022-10-26T02:45:36.275Z,18.70
2022-10-26T02:48:08.786Z,19.90
2022-10-26T02:50:49.578Z,18.30
2022-10-26T02:53:26.888Z,18.50
2022-10-26T02:56:01.223Z,17.80
2022-10-26T02:58:38.488Z,20.10
2022-10-26T03:01:10.716Z,17.20
2022-10-26T03:03:42.570Z,16.50
2022-10-26T03:06:21.266Z,16.50
2022-10-26T03:08:53.678Z,16.80
2022-10-26T03:11:25.396Z,17.30
2022-10-26T03:13:57.066Z,18.80
2022-10-26T03:16:29.016Z,17.60
2022-10-26T03:19:00.709Z,17.40
2022-10-26T03:21:32.407Z,16.80
2022-10-26T03:24:04.213Z,17.70
2022-10-26T03:26:36.097Z,16.80
2022-10-26T03:29:08.979Z,16.20
2022-10-26T03:34:10.821Z,15.40
2022-10-26T03:36:42.906Z,16.80
2022-10-26T03:39:14.616Z,17.50
2022-10-26T03:41:46.379Z,16.40
2022-10-26T03:44:18.160Z,15.90
2022-10-26T03:46:51.129Z,18.30
2022-10-26T03:49:24.775Z,17.10
2022-10-26T03:51:57.654Z,16.20
2022-10-26T03:54:30.199Z,18.40
2022-10-26T03:57:01.804Z,17.80
2022-10-26T03:59:33.561Z,17.20
2022-10-26T04:02:05.288Z,17.20
2022-10-26T04:04:37.169Z,17.50
2022-10-26T04:07:08.966Z,15.20
2022-10-26T04:09:40.757Z,21.00
2022-10-26T04:12:12.516Z,16.40
2022-10-26T04:14:44.195Z,15.70
2022-10-26T04:17:16.416Z,16.30
2022-10-26T04:19:49.666Z,14.80
2022-10-26T04:22:23.272Z,15.10
2022-10-26T04:24:56.692Z,15.70
2022-10-26T04:27:29.017Z,15.40
2022-10-26T04:30:01.491Z,14.40
2022-10-26T04:35:04.123Z,14.80
2022-10-26T04:37:36.410Z,9.20
2022-10-26T04:40:10.835Z,15.20
2022-10-26T04:42:47.893Z,14.30
2022-10-26T04:45:20.164Z,14.90
2022-10-26T04:48:02.055Z,15.60
2022-10-26T04:50:34.759Z,14.60
2022-10-26T04:53:09.332Z,14.40
2022-10-26T04:55:41.557Z,15.50
2022-10-26T04:58:14.161Z,16.00
2022-10-26T05:00:46.699Z,16.10
2022-10-26T05:03:19.374Z,16.40
2022-10-26T05:08:22.280Z,16.60
2022-10-26T05:10:55.688Z,12.70
2022-10-26T05:13:28.476Z,16.80
2022-10-26T05:16:00.991Z,18.00
2022-10-26T05:18:33.636Z,16.60
2022-10-26T05:21:05.512Z,16.20
2022-10-26T05:23:37.687Z,16.20
2022-10-26T05:26:09.951Z,17.30
2022-10-26T05:28:41.759Z,18.10
2022-10-26T05:31:13.570Z,16.20
2022-10-26T05:33:45.643Z,15.40
2022-10-26T05:36:19.435Z,16.70
2022-10-26T05:38:51.384Z,17.90
2022-10-26T05:41:23.380Z,20.10
2022-10-26T05:43:55.422Z,14.00
2022-10-26T05:46:27.165Z,19.00
2022-10-26T05:48:59.093Z,18.50
2022-10-26T05:51:30.694Z,19.80
2022-10-26T05:54:02.613Z,21.10
2022-10-26T05:56:43.828Z,20.70
2022-10-26T05:59:17.911Z,20.90
2022-10-26T06:02:00.611Z,20.50
2022-10-26T06:07:15.819Z,22.90
2022-10-26T06:09:49.906Z,20.60
2022-10-26T06:12:22.666Z,22.40
2022-10-26T06:14:55.687Z,23.00
2022-10-26T06:17:44.359Z,22.00
2022-10-26T06:20:33.526Z,24.30
2022-10-26T06:23:17.538Z,24.10
2022-10-26T06:25:56.388Z,23.10
2022-10-26T06:28:38.497Z,28.10
2022-10-26T06:31:11.817Z,26.90
2022-10-26T06:33:43.878Z,26.40
2022-10-26T06:36:24.424Z,25.40
2022-10-26T06:39:01.095Z,25.50
2022-10-26T06:41:36.668Z,26.50
2022-10-26T06:44:13.752Z,28.10
2022-10-26T06:46:50.509Z,26.70
2022-10-26T06:49:29.997Z,26.70
2022-10-26T06:52:04.505Z,25.90
2022-10-26T06:54:51.569Z,27.80
2022-10-26T06:57:25.891Z,30.30
2022-10-26T07:00:01.064Z,25.60
2022-10-26T07:02:33.387Z,24.40
2022-10-26T07:05:10.092Z,22.60
2022-10-26T07:07:44.355Z,24.40
2022-10-26T07:10:17.344Z,23.90
2022-10-26T07:15:20.583Z,24.00
2022-10-26T07:17:52.713Z,23.90
2022-10-26T07:20:25.276Z,25.80
2022-10-26T07:22:58.096Z,26.10
2022-10-26T07:25:30.719Z,27.40
2022-10-26T07:30:34.084Z,26.60
2022-10-26T07:33:07.428Z,28.40
2022-10-26T07:35:39.492Z,28.00
2022-10-26T07:38:13.560Z,19.40
2022-10-26T07:40:45.645Z,26.00
2022-10-26T07:43:17.430Z,28.10
2022-10-26T07:45:52.682Z,26.90
2022-10-26T07:48:24.350Z,22.80
2022-10-26T07:50:56.384Z,22.10
2022-10-26T07:53:28.181Z,14.60
2022-10-26T07:56:03.014Z,22.80
2022-10-26T07:58:35.147Z,22.90
2022-10-26T08:01:13.006Z,23.40
2022-10-26T08:03:47.616Z,21.00
2022-10-26T08:06:19.272Z,24.60
2022-10-26T08:08:51.859Z,23.00
2022-10-26T08:11:24.411Z,23.80
2022-10-26T08:16:27.199Z,23.90
2022-10-26T08:18:59.733Z,22.60
2022-10-26T08:21:46.647Z,24.20
2022-10-26T08:24:18.678Z,24.20
2022-10-26T08:26:50.560Z,25.60
2022-10-26T08:29:22.258Z,23.40
2022-10-26T08:31:54.011Z,27.30
2022-10-26T08:34:26.153Z,24.50
2022-10-26T08:36:58.303Z,24.50
2022-10-26T08:39:30.957Z,23.50
2022-10-26T08:42:10.302Z,23.20
2022-10-26T08:44:47.009Z,24.40
2022-10-26T08:47:23.526Z,23.10
2022-10-26T08:50:03.191Z,24.90
2022-10-26T08:52:41.570Z,26.10
2022-10-26T08:55:19.406Z,28.50
2022-10-26T08:57:53.986Z,29.10
2022-10-26T09:00:30.127Z,29.70
2022-10-26T09:03:01.951Z,30.60
2022-10-26T09:05:47.574Z,30.20
2022-10-26T09:08:30.822Z,31.90
2022-10-26T09:11:13.561Z,30.50
2022-10-26T09:14:00.176Z,31.00
2022-10-26T09:16:42.115Z,30.30
2022-10-26T09:19:37.170Z,29.10
2022-10-26T09:22:18.225Z,30.70
2022-10-26T09:24:56.620Z,30.20
2022-10-26T09:27:31.740Z,32.50
2022-10-26T09:30:14.293Z,32.60
2022-10-26T09:32:50.263Z,31.70
2022-10-26T09:35:27.593Z,31.90
2022-10-26T09:38:04.788Z,31.00
2022-10-26T09:40:43.648Z,30.80
2022-10-26T09:43:21.488Z,30.70
2022-10-26T09:45:55.039Z,31.20
2022-10-26T09:48:32.321Z,29.50
2022-10-26T09:51:04.943Z,31.50
2022-10-26T09:53:36.958Z,30.70
2022-10-26T09:56:11.583Z,30.30
2022-10-26T09:58:47.782Z,31.00
2022-10-26T10:01:36.813Z,31.70
2022-10-26T10:04:22.984Z,29.70
2022-10-26T10:07:11.971Z,30.90
2022-10-26T10:09:43.945Z,33.20
2022-10-26T10:12:23.313Z,23.10
2022-10-26T10:15:01.744Z,30.10
2022-10-26T10:17:34.627Z,33.60
2022-10-26T10:20:19.398Z,33.10
2022-10-26T10:22:59.530Z,31.90
2022-10-26T10:25:39.883Z,34.80
2022-10-26T10:28:24.385Z,31.90
2022-10-26T10:30:59.565Z,29.90
2022-10-26T10:33:40.195Z,32.30
2022-10-26T10:36:17.548Z,32.20
2022-10-26T10:38:52.024Z,30.70
2022-10-26T10:41:30.254Z,31.50
2022-10-26T10:44:09.123Z,31.60
2022-10-26T10:46:41.067Z,30.60
2022-10-26T10:49:25.053Z,29.90
2022-10-26T10:51:58.691Z,27.90
2022-10-26T10:54:34.492Z,28.00
2022-10-26T10:57:16.811Z,27.80
2022-10-26T11:00:02.986Z,28.30
2022-10-26T11:02:57.249Z,27.90
2022-10-26T11:05:39.063Z,26.60
2022-10-26T11:08:14.007Z,28.30
2022-10-26T11:10:52.213Z,27.20
2022-10-26T11:13:30.751Z,26.30
2022-10-26T11:16:05.663Z,29.20
2022-10-26T11:18:42.920Z,28.30
2022-10-26T11:21:23.719Z,26.90
2022-10-26T11:24:11.025Z,27.10
2022-10-26T11:26:47.451Z,26.50
2022-10-26T11:29:36.670Z,27.20
2022-10-26T11:32:20.863Z,25.60
2022-10-26T11:35:01.475Z,24.60
2022-10-26T11:37:38.575Z,26.00
2022-10-26T11:40:24.059Z,25.90
2022-10-26T11:43:06.655Z,23.80
2022-10-26T11:45:42.426Z,24.50
2022-10-26T11:48:22.315Z,24.00
2022-10-26T11:50:58.629Z,25.10
2022-10-26T11:53:37.313Z,25.20
2022-10-26T11:56:16.910Z,22.70
2022-10-26T11:58:49.571Z,23.00
2022-10-26T12:01:22.512Z,23.30
2022-10-26T12:03:58.711Z,23.40
2022-10-26T12:06:33.550Z,21.90
2022-10-26T12:09:10.158Z,22.90
2022-10-26T12:11:49.318Z,21.40
2022-10-26T12:14:27.248Z,23.30
2022-10-26T12:17:10.530Z,19.60
2022-10-26T12:19:49.015Z,18.50
2022-10-26T12:22:23.749Z,19.70
2022-10-26T12:25:21.276Z,19.30
2022-10-26T12:27:55.991Z,17.60
2022-10-26T12:30:31.386Z,18.70
2022-10-26T12:33:05.315Z,19.20
2022-10-26T12:35:42.774Z,17.70
2022-10-26T12:38:49.861Z,17.00
2022-10-26T12:41:27.928Z,16.90
2022-10-26T12:44:07.606Z,16.20
2022-10-26T12:46:43.129Z,15.50
2022-10-26T12:50:00.509Z,15.00
2022-10-26T12:52:55.852Z,15.60
2022-10-26T12:55:57.568Z,12.50
2022-10-26T12:59:09.342Z,12.50
2022-10-26T13:02:24.176Z,11.20
2022-10-26T13:05:30.286Z,10.70
2022-10-26T13:08:07.395Z,11.10
2022-10-26T13:10:46.195Z,10.50
2022-10-26T13:13:25.626Z,10.10
2022-10-26T13:15:59.349Z,9.20
2022-10-26T13:18:32.230Z,9.90
2022-10-26T13:21:09.424Z,10.30
2022-10-26T13:23:43.852Z,10.90
2022-10-26T13:26:17.426Z,10.70
2022-10-26T13:28:52.735Z,11.00
2022-10-26T13:31:58.167Z,11.20
2022-10-26T13:34:32.970Z,11.20
2022-10-26T13:37:20.635Z,10.10
2022-10-26T13:39:56.091Z,10.30
2022-10-26T13:45:11.026Z,10.30
2022-10-26T13:47:48.605Z,9.50
2022-10-26T13:50:26.523Z,8.60
2022-10-26T13:53:07.370Z,8.30
2022-10-26T13:55:49.802Z,8.20
2022-10-26T13:58:29.210Z,8.40
2022-10-26T14:01:12.979Z,8.00
2022-10-26T14:03:45.182Z,6.10
2022-10-26T14:06:23.971Z,5.10
2022-10-26T14:09:00.869Z,6.00
2022-10-26T14:11:37.895Z,6.30
2022-10-26T14:14:18.724Z,5.60
2022-10-26T14:16:53.600Z,4.90
2022-10-26T14:19:29.503Z,6.80
2022-10-26T14:22:02.738Z,5.70
2022-10-26T14:24:52.855Z,5.50
2022-10-26T14:27:26.364Z,6.30
2022-10-26T14:30:20.909Z,5.90
2022-10-26T14:35:27.114Z,6.30
2022-10-26T14:38:02.148Z,6.00
2022-10-26T14:40:38.956Z,5.60
2022-10-26T14:43:19.833Z,6.10
2022-10-26T14:45:53.337Z,7.20
2022-10-26T14:48:30.839Z,8.20
2022-10-26T14:51:16.947Z,6.10
2022-10-26T14:53:53.647Z,6.60
2022-10-26T14:56:40.223Z,7.00
2022-10-26T14:59:23.400Z,7.80
2022-10-26T15:01:57.763Z,6.60
2022-10-26T15:04:39.678Z,6.10
2022-10-26T15:07:20.037Z,6.40
2022-10-26T15:09:53.614Z,6.80
2022-10-26T15:12:33.821Z,6.50
2022-10-26T15:15:24.931Z,6.90
2022-10-26T15:17:59.706Z,6.70
2022-10-26T15:20:32.414Z,7.30
2022-10-26T15:23:06.118Z,7.90
2022-10-26T15:25:38.558Z,7.80
2022-10-26T15:28:22.892Z,8.70
2022-10-26T15:31:07.309Z,8.10
2022-10-26T15:33:40.490Z,8.50
2022-10-26T15:36:17.549Z,8.90
2022-10-26T15:38:49.569Z,7.90
2022-10-26T15:41:24.960Z,9.50
2022-10-26T15:44:01.465Z,8.90
2022-10-26T15:46:35.601Z,12.60
2022-10-26T15:49:15.291Z,9.10
2022-10-26T15:51:49.333Z,10.00
2022-10-26T15:54:21.072Z,11.00
2022-10-26T15:56:53.346Z,10.50
2022-10-26T15:59:25.079Z,10.20
2022-10-26T16:01:57.644Z,11.20
2022-10-26T16:04:30.463Z,10.80
2022-10-26T16:07:05.858Z,12.20
2022-10-26T16:09:38.468Z,12.30
2022-10-26T16:12:14.290Z,13.20
2022-10-26T16:15:04.369Z,12.20
2022-10-26T16:17:37.070Z,13.30
2022-10-26T16:20:13.811Z,11.70
2022-10-26T16:22:48.386Z,13.60
2022-10-26T16:25:23.046Z,12.70
2022-10-26T16:27:57.149Z,12.70
2022-10-26T16:30:31.173Z,15.40
2022-10-26T16:33:02.889Z,12.90
2022-10-26T16:35:38.928Z,12.70
2022-10-26T16:38:11.933Z,13.00
2022-10-26T16:40:45.309Z,12.80
2022-10-26T16:43:16.931Z,12.60
2022-10-26T16:45:48.794Z,12.70
2022-10-26T16:48:21.020Z,13.10
2022-10-26T16:50:53.297Z,13.50
2022-10-26T16:53:29.664Z,14.80
2022-10-26T16:56:07.122Z,13.20
2022-10-26T16:58:38.969Z,13.80
2022-10-26T17:01:13.213Z,14.50
2022-10-26T17:03:47.289Z,14.80
2022-10-26T17:06:20.377Z,15.70
2022-10-26T17:08:53.487Z,15.50
2022-10-26T17:11:25.485Z,15.90
2022-10-26T17:13:58.038Z,17.10
2022-10-26T17:19:02.210Z,14.10
2022-10-26T17:21:36.491Z,14.40
2022-10-26T17:24:09.021Z,14.80
2022-10-26T17:26:40.741Z,16.30
2022-10-26T17:29:15.301Z,16.40
2022-10-26T17:31:47.927Z,17.20
2022-10-26T17:34:20.142Z,18.30
2022-10-26T17:36:53.073Z,20.10
2022-10-26T17:39:25.399Z,18.30
2022-10-26T17:41:57.965Z,17.50
2022-10-26T17:44:30.667Z,17.40
2022-10-26T17:49:36.180Z,16.90
2022-10-26T17:52:11.695Z,19.00
2022-10-26T17:54:43.910Z,18.50
2022-10-26T17:57:16.624Z,19.00
2022-10-26T17:59:48.581Z,19.70
2022-10-26T18:02:21.854Z,17.00
2022-10-26T18:04:56.298Z,21.60
2022-10-26T18:07:32.840Z,22.30
2022-10-26T18:10:19.892Z,24.40
2022-10-26T18:12:58.689Z,25.00
2022-10-26T18:15:31.106Z,28.40
2022-10-26T18:18:04.001Z,29.10
2022-10-26T18:20:37.168Z,31.80
2022-10-26T18:23:10.163Z,29.40
2022-10-26T18:25:42.856Z,27.80
2022-10-26T18:28:17.130Z,27.30
2022-10-26T18:30:50.407Z,28.20
2022-10-26T18:33:22.911Z,27.90
2022-10-26T18:35:55.518Z,25.10
2022-10-26T18:38:28.221Z,27.40
2022-10-26T18:41:00.793Z,26.40
2022-10-26T18:43:33.512Z,27.20
2022-10-26T18:46:12.571Z,24.10
2022-10-26T18:48:46.753Z,24.50
2022-10-26T18:51:21.147Z,23.80
2022-10-26T18:53:53.880Z,25.70
2022-10-26T18:56:27.320Z,24.70
2022-10-26T18:59:00.544Z,23.80
2022-10-26T19:01:34.837Z,21.40
2022-10-26T19:04:09.135Z,18.20
2022-10-26T19:06:45.568Z,21.10
2022-10-26T19:09:19.396Z,26.40
2022-10-26T19:11:51.138Z,24.10
2022-10-26T19:14:23.377Z,24.70
2022-10-26T19:16:55.503Z,25.30
2022-10-26T19:19:27.290Z,30.10
2022-10-26T19:22:01.094Z,19.40
2022-10-26T19:24:33.219Z,27.20
2022-10-26T19:27:05.171Z,28.00
2022-10-26T19:29:37.154Z,28.20
2022-10-26T19:32:09.209Z,23.70
2022-10-26T19:34:41.076Z,23.70
2022-10-26T19:37:13.769Z,25.70
2022-10-26T19:39:45.659Z,25.10
2022-10-26T19:42:17.330Z,23.90
2022-10-26T19:44:48.882Z,26.20
2022-10-26T19:47:20.523Z,24.00
2022-10-26T19:49:53.565Z,28.60
2022-10-26T19:52:25.539Z,32.00
2022-10-26T19:54:58.299Z,32.20
2022-10-26T20:00:00.901Z,32.20
2022-10-26T20:02:33.407Z,31.90
2022-10-26T20:05:06.594Z,34.60
2022-10-26T20:07:39.120Z,33.80
2022-10-26T20:10:12.375Z,35.50
2022-10-26T20:12:44.542Z,36.30
2022-10-26T20:15:16.815Z,34.40
2022-10-26T20:17:50.920Z,36.60
2022-10-26T20:20:23.488Z,33.80
2022-10-26T20:22:55.722Z,35.40
2022-10-26T20:25:28.060Z,34.20
2022-10-26T20:27:59.786Z,38.20
2022-10-26T20:30:32.791Z,37.90
2022-10-26T20:33:05.635Z,43.00
2022-10-26T20:38:16.955Z,46.60
2022-10-26T20:40:56.296Z,44.70
2022-10-26T20:43:30.812Z,40.70
2022-10-26T20:46:03.940Z,36.50
2022-10-26T20:48:39.295Z,38.10
2022-10-26T20:51:26.452Z,36.90
2022-10-26T20:54:05.129Z,35.20
2022-10-26T20:56:41.476Z,34.70
2022-10-26T20:59:23.417Z,34.10
2022-10-26T21:01:56.393Z,34.60
2022-10-26T21:04:28.308Z,35.00
2022-10-26T21:06:59.997Z,35.90
2022-10-26T21:09:35.715Z,38.20
2022-10-26T21:12:09.469Z,35.60
2022-10-26T21:14:41.905Z,35.70
2022-10-26T21:17:14.202Z,35.90
2022-10-26T21:19:46.042Z,39.10
2022-10-26T21:22:18.092Z,37.20
2022-10-26T21:24:51.059Z,39.70
2022-10-26T21:27:23.843Z,38.10
2022-10-26T21:29:56.280Z,37.10
2022-10-26T21:32:28.714Z,39.80
2022-10-26T21:35:01.019Z,39.10
2022-10-26T21:37:33.080Z,38.80
2022-10-26T21:40:06.019Z,38.50
2022-10-26T21:45:10.280Z,38.30
2022-10-26T21:47:42.995Z,38.60
2022-10-26T21:50:15.093Z,39.80
2022-10-26T21:52:47.191Z,40.50
2022-10-26T21:55:19.141Z,39.90
2022-10-26T21:57:53.540Z,40.50
2022-10-26T22:00:25.391Z,43.40
2022-10-26T22:02:57.523Z,39.40
2022-10-26T22:05:30.218Z,40.30
2022-10-26T22:08:02.209Z,38.50
2022-10-26T22:10:33.954Z,38.70
2022-10-26T22:13:05.619Z,39.50
2022-10-26T22:15:37.361Z,38.90
2022-10-26T22:18:10.087Z,38.60
2022-10-26T22:20:41.870Z,38.80
2022-10-26T22:23:13.542Z,41.30
2022-10-26T22:25:45.261Z,38.30
2022-10-26T22:28:17.913Z,39.90
2022-10-26T22:30:50.478Z,39.00
2022-10-26T22:33:22.539Z,38.70
2022-10-26T22:35:54.363Z,39.70
2022-10-26T22:38:26.001Z,39.70
2022-10-26T22:40:57.992Z,40.60
2022-10-26T22:43:30.016Z,39.10
2022-10-26T22:46:07.151Z,42.30
2022-10-26T22:48:41.206Z,42.50
2022-10-26T22:51:15.628Z,37.10
2022-10-26T22:53:48.345Z,40.70
2022-10-26T22:58:54.321Z,38.80
2022-10-26T23:01:28.431Z,41.60
2022-10-26T23:04:00.655Z,42.20
2022-10-26T23:06:34.788Z,41.80
2022-10-26T23:09:07.492Z,42.00
2022-10-26T23:11:39.520Z,42.80
2022-10-26T23:14:11.936Z,42.20
2022-10-26T23:16:44.162Z,42.20
2022-10-26T23:19:16.791Z,43.20
2022-10-26T23:21:48.714Z,40.30
2022-10-26T23:24:20.619Z,40.90
2022-10-26T23:26:52.908Z,42.10
2022-10-26T23:29:24.621Z,40.00
2022-10-26T23:31:56.790Z,29.30
2022-10-26T23:34:29.143Z,40.50
2022-10-26T23:37:01.086Z,40.30
2022-10-26T23:39:33.020Z,29.00
2022-10-26T23:42:06.031Z,40.70
2022-10-26T23:44:38.050Z,39.90
2022-10-26T23:47:10.377Z,41.10
2022-10-26T23:49:42.813Z,41.50
2022-10-26T23:52:15.118Z,42.80
2022-10-26T23:57:24.505Z,39.30
2022-10-26T23:59:58.272Z,39.80
